Terminal Aerodrome Forecast
Issued by NWS Wilmington, OH

Current Version | Previous Version | Graphics & Text | Print | Product List | Glossary On
Versions: 1 2 3 4 5 6 7 8 9 10 11 12 13 14 15 16 17 18 19 20 21 22 23 24 25 26 27 28 29
000
FTUS41 KILN 230538
TAFDAY
TAF
KDAY 230538Z 2306/2406 19012KT P6SM VCSH BKN015 OVC022
      TEMPO 2306/2309 BKN008 OVC015
     FM231100 22014G20KT 5SM SHRA BR OVC015
      TEMPO 2313/2317 3SM +SHRA BKN010 OVC070
     FM232100 23009KT P6SM -SHRA OVC020
     FM240100 30009KT P6SM BKN010=

USA.gov is the U.S. government's official web portal to all federal, state and local government web resources and services.